createdAt,value
2022-12-26T00:00:06.573Z,8.17
2022-12-26T00:02:34.535Z,8.26
2022-12-26T00:05:09.443Z,8.21
2022-12-26T00:07:37.343Z,8.15
2022-12-26T00:10:11.343Z,8.33
2022-12-26T00:12:42.387Z,8.25
2022-12-26T00:15:20.374Z,8.23
2022-12-26T00:17:50.956Z,8.34
2022-12-26T00:20:25.524Z,8.36
2022-12-26T00:22:59.430Z,8.36
2022-12-26T00:25:27.638Z,8.38
2022-12-26T00:28:04.714Z,8.39
2022-12-26T00:30:32.182Z,8.24
2022-12-26T00:35:47.431Z,8.21
2022-12-26T00:38:21.825Z,8.22
2022-12-26T00:40:49.484Z,8.31
2022-12-26T00:43:25.653Z,8.25
2022-12-26T00:45:56.647Z,8.37
2022-12-26T00:48:31.600Z,8.26
2022-12-26T00:51:06.538Z,8.42
2022-12-26T00:53:47.538Z,8.42
2022-12-26T00:56:16.292Z,8.27
2022-12-26T00:58:50.514Z,8.28
2022-12-26T01:01:24.366Z,8.45
2022-12-26T01:03:59.533Z,8.28
2022-12-26T01:06:36.256Z,8.46
2022-12-26T01:09:13.417Z,8.48
2022-12-26T01:11:41.122Z,8.48
2022-12-26T01:14:21.365Z,8.40
2022-12-26T01:16:58.980Z,8.38
2022-12-26T01:19:36.141Z,8.35
2022-12-26T01:22:06.784Z,8.37
2022-12-26T01:24:43.401Z,8.44
2022-12-26T01:27:17.759Z,8.29
2022-12-26T01:29:51.303Z,8.31
2022-12-26T01:32:35.750Z,8.34
2022-12-26T01:35:14.811Z,8.28
2022-12-26T01:37:49.496Z,8.44
2022-12-26T01:40:16.931Z,8.28
2022-12-26T01:42:50.321Z,8.41
2022-12-26T01:45:32.657Z,8.30
2022-12-26T01:48:11.442Z,8.33
2022-12-26T01:51:03.790Z,8.44
2022-12-26T01:53:48.335Z,8.45
2022-12-26T01:56:31.254Z,8.45
2022-12-26T01:59:42.428Z,8.32
2022-12-26T02:02:17.684Z,8.35
2022-12-26T02:05:07.982Z,8.35
2022-12-26T02:07:46.196Z,8.36
2022-12-26T02:10:23.366Z,8.45
2022-12-26T02:13:00.362Z,8.40
2022-12-26T02:15:35.399Z,8.31
2022-12-26T02:24:35.381Z,8.34
2022-12-26T02:27:19.528Z,8.32
2022-12-26T02:30:22.594Z,8.48
2022-12-26T02:33:17.445Z,8.47
2022-12-26T02:36:21.431Z,8.50
2022-12-26T02:39:44.831Z,8.49
2022-12-26T02:42:28.325Z,8.42
2022-12-26T02:45:48.613Z,8.53
2022-12-26T02:48:24.682Z,8.49
2022-12-26T02:51:47.460Z,8.54
2022-12-26T02:54:52.187Z,8.55
2022-12-26T02:58:03.222Z,8.50
2022-12-26T03:00:53.074Z,8.55
2022-12-26T03:03:55.675Z,8.49
2022-12-26T03:06:53.561Z,8.51
2022-12-26T03:09:43.689Z,8.55
2022-12-26T03:13:03.522Z,8.55
2022-12-26T03:16:02.778Z,8.40
2022-12-26T03:18:57.683Z,8.41
2022-12-26T03:21:32.666Z,8.47
2022-12-26T03:24:17.515Z,8.45
2022-12-26T03:26:59.580Z,8.37
2022-12-26T03:29:47.080Z,8.39
2022-12-26T03:32:23.735Z,8.43
2022-12-26T03:34:56.205Z,8.53
2022-12-26T03:37:54.922Z,8.53
2022-12-26T03:41:18.762Z,8.54
2022-12-26T03:44:13.718Z,8.54
2022-12-26T03:47:28.701Z,8.55
2022-12-26T03:50:20.815Z,8.39
2022-12-26T03:53:46.491Z,8.42
2022-12-26T03:56:53.679Z,8.50
2022-12-26T03:59:55.932Z,8.45
2022-12-26T04:02:54.640Z,8.54
2022-12-26T04:05:51.023Z,8.37
2022-12-26T04:08:43.579Z,8.51
2022-12-26T04:11:42.506Z,8.37
2022-12-26T04:15:06.138Z,8.47
2022-12-26T04:18:13.834Z,8.25
2022-12-26T04:21:15.936Z,8.39
2022-12-26T04:24:15.889Z,8.25
2022-12-26T04:27:06.823Z,8.32
2022-12-26T04:30:00.415Z,8.28
2022-12-26T04:33:21.133Z,8.26
2022-12-26T04:39:26.640Z,8.31
2022-12-26T04:42:22.352Z,8.28
2022-12-26T04:44:57.314Z,8.26
2022-12-26T04:47:34.610Z,8.19
2022-12-26T04:50:13.497Z,8.17
2022-12-26T04:53:10.064Z,8.33
2022-12-26T04:55:44.908Z,8.33
2022-12-26T04:58:18.347Z,8.27
2022-12-26T05:00:54.508Z,8.19
2022-12-26T05:03:51.194Z,8.20
2022-12-26T05:06:46.736Z,8.21
2022-12-26T05:09:40.032Z,8.31
2022-12-26T05:12:16.620Z,8.29
2022-12-26T05:14:47.414Z,8.28
2022-12-26T05:17:41.856Z,8.22
2022-12-26T05:20:37.435Z,8.33
2022-12-26T05:23:30.860Z,8.17
2022-12-26T05:26:25.579Z,8.31
2022-12-26T05:29:17.970Z,8.15
2022-12-26T05:32:01.248Z,8.24
2022-12-26T05:34:35.648Z,8.32
2022-12-26T05:37:07.906Z,8.18
2022-12-26T05:39:42.709Z,8.15
2022-12-26T05:42:15.732Z,8.32
2022-12-26T05:44:53.584Z,8.15
2022-12-26T05:47:27.553Z,8.19
2022-12-26T05:50:06.960Z,8.32
2022-12-26T05:55:46.027Z,8.11
2022-12-26T05:58:20.559Z,8.08
2022-12-26T06:00:54.672Z,8.15
2022-12-26T06:03:28.570Z,8.16
2022-12-26T06:05:58.080Z,8.08
2022-12-26T06:08:41.621Z,8.11
2022-12-26T06:11:15.557Z,8.16
2022-12-26T06:13:52.291Z,7.96
2022-12-26T06:16:20.514Z,8.08
2022-12-26T06:18:57.155Z,7.98
2022-12-26T06:21:31.828Z,7.96
2022-12-26T06:24:08.649Z,8.00
2022-12-26T06:26:39.081Z,8.07
2022-12-26T06:29:16.745Z,7.94
2022-12-26T06:31:48.021Z,7.91
2022-12-26T06:34:25.706Z,7.90
2022-12-26T06:36:56.583Z,8.07
2022-12-26T06:39:35.354Z,7.89
2022-12-26T06:42:14.920Z,7.85
2022-12-26T06:44:45.157Z,7.99
2022-12-26T06:47:19.898Z,7.96
2022-12-26T06:49:57.880Z,7.83
2022-12-26T06:52:41.643Z,7.88
2022-12-26T06:55:09.456Z,7.81
2022-12-26T06:57:48.956Z,7.95
2022-12-26T07:00:23.658Z,7.89
2022-12-26T07:03:07.782Z,7.81
2022-12-26T07:05:42.100Z,7.70
2022-12-26T07:08:21.966Z,7.70
2022-12-26T07:10:49.537Z,7.73
2022-12-26T07:13:24.452Z,7.63
2022-12-26T07:15:58.008Z,7.73
2022-12-26T07:18:32.729Z,7.68
2022-12-26T07:21:03.482Z,7.58
2022-12-26T07:23:38.581Z,7.60
2022-12-26T07:26:09.441Z,7.66
2022-12-26T07:37:42.776Z,7.76
2022-12-26T07:43:04.350Z,7.71
2022-12-26T07:48:37.638Z,7.78
2022-12-26T07:54:57.773Z,7.87
2022-12-26T07:57:48.747Z,7.90
2022-12-26T08:05:58.337Z,7.93
2022-12-26T08:08:35.894Z,7.97
2022-12-26T08:11:08.241Z,8.01
2022-12-26T08:13:42.464Z,8.02
2022-12-26T08:18:58.151Z,8.09
2022-12-26T08:21:28.029Z,8.03
2022-12-26T08:24:05.724Z,8.12
2022-12-26T08:26:37.721Z,8.22
2022-12-26T08:35:27.368Z,8.24
2022-12-26T08:40:43.546Z,8.28
2022-12-26T08:53:09.086Z,8.44
2022-12-26T08:59:11.873Z,8.52
2022-12-26T09:10:49.831Z,8.98
2022-12-26T09:13:39.551Z,8.99
2022-12-26T09:16:17.345Z,9.14
2022-12-26T09:24:44.022Z,9.35
2022-12-26T09:27:15.061Z,9.27
2022-12-26T09:36:14.495Z,9.17
2022-12-26T09:38:50.866Z,9.14
2022-12-26T09:42:00.638Z,9.15
2022-12-26T09:44:49.913Z,9.28
2022-12-26T09:50:23.925Z,9.23
2022-12-26T09:53:20.554Z,8.99
2022-12-26T09:56:37.029Z,9.19
2022-12-26T10:01:55.857Z,9.11
2022-12-26T10:07:38.191Z,9.14
2022-12-26T10:10:29.005Z,9.09
2022-12-26T10:16:54.829Z,9.15
2022-12-26T10:40:29.565Z,8.88
2022-12-26T10:43:03.905Z,8.71
2022-12-26T10:49:06.082Z,8.61
2022-12-26T10:58:17.467Z,8.55
2022-12-26T11:13:08.621Z,8.56
2022-12-26T11:15:41.656Z,8.04
2022-12-26T11:43:12.032Z,6.91
2022-12-26T11:53:03.970Z,6.87
2022-12-26T11:55:56.534Z,6.87
2022-12-26T12:02:43.732Z,6.93
2022-12-26T12:05:23.546Z,7.00
2022-12-26T12:08:21.724Z,6.92
2022-12-26T12:11:32.627Z,7.06
2022-12-26T12:17:25.611Z,6.99
2022-12-26T12:20:39.552Z,7.04
2022-12-26T12:23:46.024Z,7.06
2022-12-26T12:26:28.701Z,7.09
2022-12-26T12:29:17.469Z,7.13
2022-12-26T12:32:18.572Z,7.09
2022-12-26T12:35:14.621Z,7.19
2022-12-26T12:38:00.759Z,7.14
2022-12-26T12:40:52.861Z,7.20
2022-12-26T12:43:52.240Z,7.33
2022-12-26T12:53:48.586Z,7.22
2022-12-26T12:57:06.608Z,7.23
2022-12-26T12:59:57.120Z,7.49
2022-12-26T13:02:41.658Z,7.73
2022-12-26T13:05:26.702Z,7.92
2022-12-26T13:11:37.603Z,7.95
2022-12-26T13:14:20.540Z,7.71
2022-12-26T13:26:33.641Z,7.59
2022-12-26T13:29:48.928Z,7.42
2022-12-26T13:32:28.824Z,7.30
2022-12-26T13:35:14.996Z,7.22
2022-12-26T13:37:42.006Z,7.25
2022-12-26T13:40:17.655Z,7.07
2022-12-26T13:43:25.002Z,7.10
2022-12-26T13:46:04.768Z,6.85
2022-12-26T13:51:59.128Z,6.87
2022-12-26T13:54:30.024Z,6.68
2022-12-26T13:57:36.993Z,6.72
2022-12-26T14:00:43.289Z,6.58
2022-12-26T14:03:50.913Z,6.61
2022-12-26T14:07:03.642Z,6.35
2022-12-26T14:09:34.715Z,6.44
2022-12-26T14:12:17.731Z,6.39
2022-12-26T14:18:56.676Z,6.47
2022-12-26T14:21:35.427Z,6.26
2022-12-26T14:24:17.833Z,6.23
2022-12-26T14:27:12.901Z,6.29
2022-12-26T14:30:25.737Z,6.37
2022-12-26T14:33:17.063Z,6.38
2022-12-26T14:36:34.687Z,6.24
2022-12-26T14:42:31.679Z,6.36
2022-12-26T14:45:09.667Z,6.20
2022-12-26T14:47:55.619Z,6.18
2022-12-26T14:50:43.503Z,6.30
2022-12-26T14:56:22.734Z,6.15
2022-12-26T14:59:27.648Z,6.10
2022-12-26T15:02:27.907Z,6.04
2022-12-26T15:05:19.694Z,5.97
2022-12-26T15:08:20.079Z,5.73
2022-12-26T15:11:15.088Z,5.86
2022-12-26T15:14:20.682Z,5.83
2022-12-26T15:17:18.923Z,5.81
2022-12-26T15:20:13.724Z,5.79
2022-12-26T15:23:11.274Z,5.77
2022-12-26T15:25:51.115Z,5.76
2022-12-26T15:28:41.792Z,5.71
2022-12-26T15:31:37.233Z,5.54
2022-12-26T15:37:24.704Z,5.64
2022-12-26T15:40:08.843Z,5.49
2022-12-26T15:42:54.366Z,5.65
2022-12-26T15:48:22.511Z,6.27
2022-12-26T15:51:53.862Z,7.03
2022-12-26T15:55:05.962Z,6.20
2022-12-26T15:57:53.052Z,5.62
2022-12-26T16:00:32.785Z,5.27
2022-12-26T16:03:37.318Z,5.30
2022-12-26T16:06:51.736Z,5.19
2022-12-26T16:09:49.856Z,5.06
2022-12-26T16:12:37.615Z,4.94
2022-12-26T16:15:18.489Z,4.93
2022-12-26T16:17:49.139Z,4.78
2022-12-26T16:20:54.990Z,4.77
2022-12-26T16:23:30.161Z,4.80
2022-12-26T16:26:07.768Z,4.71
2022-12-26T16:28:42.146Z,4.76
2022-12-26T16:31:16.800Z,4.82
2022-12-26T16:33:55.003Z,4.79
2022-12-26T16:36:35.786Z,4.75
2022-12-26T16:39:17.698Z,4.78
2022-12-26T16:44:47.826Z,4.67
2022-12-26T16:47:30.320Z,4.52
2022-12-26T16:49:58.882Z,4.50
2022-12-26T16:52:49.758Z,4.50
2022-12-26T16:55:30.588Z,4.38
2022-12-26T16:58:30.720Z,4.28
2022-12-26T17:14:45.135Z,3.99
2022-12-26T17:17:30.675Z,4.13
2022-12-26T17:26:37.923Z,3.95
2022-12-26T17:29:12.973Z,3.97
2022-12-26T17:31:49.226Z,3.88
2022-12-26T17:37:42.983Z,3.99
2022-12-26T17:40:23.223Z,3.86
2022-12-26T17:43:01.859Z,3.85
2022-12-26T17:45:49.255Z,3.92
2022-12-26T17:48:28.000Z,3.74
2022-12-26T17:51:04.928Z,3.69
2022-12-26T17:53:44.345Z,3.73
2022-12-26T17:56:39.583Z,3.69
2022-12-26T17:59:25.673Z,3.55
2022-12-26T18:02:07.014Z,3.53
2022-12-26T18:05:06.899Z,3.46
2022-12-26T18:07:43.665Z,3.62
2022-12-26T18:10:25.097Z,3.49
2022-12-26T18:13:00.059Z,3.42
2022-12-26T18:15:31.376Z,3.36
2022-12-26T18:18:10.902Z,3.42
2022-12-26T18:20:38.847Z,3.31
2022-12-26T18:23:18.491Z,3.50
2022-12-26T18:28:38.593Z,3.23
2022-12-26T18:31:14.874Z,3.39
2022-12-26T18:33:54.014Z,3.29
2022-12-26T18:36:28.183Z,3.35
2022-12-26T18:44:30.179Z,3.30
2022-12-26T18:49:46.953Z,3.10
2022-12-26T18:52:18.593Z,3.04
2022-12-26T18:54:55.097Z,2.96
2022-12-26T19:01:08.872Z,3.03
2022-12-26T19:03:45.323Z,2.91
2022-12-26T19:06:25.151Z,2.91
2022-12-26T19:09:11.511Z,2.98
2022-12-26T19:14:36.363Z,2.73
2022-12-26T19:17:29.476Z,2.68
2022-12-26T19:20:02.024Z,2.70
2022-12-26T19:25:22.106Z,2.62
2022-12-26T19:28:05.085Z,2.83
2022-12-26T19:30:42.523Z,2.75
2022-12-26T19:33:19.105Z,2.80
2022-12-26T19:35:47.605Z,3.02
2022-12-26T19:38:22.162Z,2.97
2022-12-26T19:40:51.722Z,2.89
2022-12-26T19:43:32.396Z,3.00
2022-12-26T19:46:05.583Z,3.02
2022-12-26T19:48:42.846Z,3.10
2022-12-26T19:51:15.463Z,3.10
2022-12-26T19:56:35.034Z,3.22
2022-12-26T19:59:18.540Z,2.99
2022-12-26T20:01:49.212Z,3.08
2022-12-26T20:04:34.152Z,3.01
2022-12-26T20:07:03.657Z,3.22
2022-12-26T20:09:41.227Z,3.00
2022-12-26T20:12:12.571Z,3.13
2022-12-26T20:14:52.521Z,2.92
2022-12-26T20:17:23.033Z,2.97
2022-12-26T20:22:52.846Z,3.02
2022-12-26T20:28:07.181Z,2.87
2022-12-26T20:45:52.661Z,2.84
2022-12-26T20:48:27.240Z,2.97
2022-12-26T20:51:10.055Z,2.98
2022-12-26T20:53:42.210Z,2.93
2022-12-26T20:59:16.896Z,3.11
2022-12-26T21:02:08.043Z,3.09
2022-12-26T21:04:58.423Z,2.94
2022-12-26T21:07:39.487Z,2.95
2022-12-26T21:16:19.539Z,3.03
2022-12-26T21:18:55.583Z,2.91
2022-12-26T21:21:42.966Z,2.88
2022-12-26T21:27:27.471Z,2.75
2022-12-26T21:30:07.034Z,2.75
2022-12-26T21:33:01.114Z,2.69
2022-12-26T21:35:50.232Z,2.77
2022-12-26T21:38:33.989Z,2.69
2022-12-26T21:43:55.019Z,2.78
2022-12-26T21:46:35.012Z,2.81
2022-12-26T21:49:06.316Z,2.71
2022-12-26T22:01:43.760Z,2.63
2022-12-26T22:08:05.912Z,2.72
2022-12-26T22:23:35.622Z,2.72
2022-12-26T22:26:12.067Z,2.68
2022-12-26T22:28:50.929Z,2.72
2022-12-26T22:31:23.445Z,2.70
2022-12-26T22:34:20.399Z,2.72
2022-12-26T22:48:34.661Z,2.71
2022-12-26T22:53:56.000Z,2.82
2022-12-26T23:02:00.429Z,2.83
2022-12-26T23:10:47.447Z,3.02
2022-12-26T23:20:15.384Z,3.14
2022-12-26T23:29:49.062Z,2.75
2022-12-26T23:37:48.082Z,2.70
2022-12-26T23:40:26.204Z,2.72
2022-12-26T23:52:24.175Z,2.58
